This is the latest recevied weather packets stored in our database for station/object OE9XVI-6. If no packets are shown the sender has not sent any weather packets the latest 10 day(s).
| Time | Temp. | Humidity | Pressure | Rain* | Wind** | Luminosity | Snow |
|---|---|---|---|---|---|---|---|
| 1777998413 | 17.22° C | 56% | 1009.1 hPa | 0 mm | - | - | - |
| 1777997813 | 19.44° C | 54% | 1009.1 hPa | 0 mm | - | - | - |
| 1777997213 | 18.33° C | 58% | 1009 hPa | 0 mm | - | - | - |
| 1777996613 | 18.89° C | 55% | 1009 hPa | 0 mm | - | - | - |
| 1777996013 | 23.33° C | 42% | 1008.8 hPa | 0 mm | - | - | - |
| 1777995413 | 31.67° C | 30% | 1008.7 hPa | 0 mm | - | - | - |
| 1777994813 | 31.11° C | 33% | 1008.8 hPa | 0 mm | - | - | - |
| 1777994213 | 30° C | 30% | 1008.8 hPa | 0 mm | - | - | - |
| 1777993613 | 34.44° C | 27% | 1008.8 hPa | 0 mm | - | - | - |
| 1777993013 | 33.89° C | 31% | 1008.6 hPa | 0 mm | - | - | - |
| 1777992413 | 28.89° C | 39% | 1008.7 hPa | 0 mm | - | - | - |
| 1777991813 | 26.11° C | 37% | 1008.6 hPa | 0 mm | - | - | - |
| 1777991213 | 26.11° C | 45% | 1008.8 hPa | 0 mm | - | - | - |
| 1777990613 | 22.78° C | 43% | 1008.7 hPa | 0 mm | - | - | - |
| 1777990013 | 22.78° C | 43% | 1009 hPa | 0 mm | - | - | - |
| 1777989414 | 23.89° C | 48% | 1008.8 hPa | 0 mm | - | - | - |
| 1777988813 | 20° C | 53% | 1008.8 hPa | 0 mm | - | - | - |
| 1777988214 | 20° C | 52% | 1009 hPa | 0 mm | - | - | - |
| 1777987613 | 20° C | 50% | 1009 hPa | 0 mm | - | - | - |
| 1777987014 | 18.89° C | 53% | 1009.1 hPa | 0 mm | - | - | - |
| 1777986414 | 18.89° C | 46% | 1009.1 hPa | 0 mm | - | - | - |
| 1777985814 | 18.89° C | 47% | 1009.2 hPa | 0 mm | - | - | - |
| 1777985214 | 20° C | 49% | 1009.2 hPa | 0 mm | - | - | - |
| 1777984614 | 19.44° C | 48% | 1009.3 hPa | 0 mm | - | - | - |
| 1777984014 | 20° C | 51% | 1009.3 hPa | 0 mm | - | - | - |
* Rain latest hour (hover to see other rain measurements)
** Current wind speed in m/s (hover to see current wind gust speed)